sensor_id;sensor_type;location;lat;lon;timestamp;temperature;humidity
69823;SHT31;57119;52.516;13.508;2022-09-28T00:00:52;8.29;96.43
69823;SHT31;57119;52.516;13.508;2022-09-28T00:03:18;8.38;95.79
69823;SHT31;57119;52.516;13.508;2022-09-28T00:05:43;8.40;96.06
69823;SHT31;57119;52.516;13.508;2022-09-28T00:08:09;8.41;95.90
69823;SHT31;57119;52.516;13.508;2022-09-28T00:10:34;8.40;95.76
69823;SHT31;57119;52.516;13.508;2022-09-28T00:12:59;8.41;96.02
69823;SHT31;57119;52.516;13.508;2022-09-28T00:15:25;8.40;96.19
69823;SHT31;57119;52.516;13.508;2022-09-28T00:17:51;8.42;95.72
69823;SHT31;57119;52.516;13.508;2022-09-28T00:20:16;8.47;95.86
69823;SHT31;57119;52.516;13.508;2022-09-28T00:22:43;8.50;95.64
69823;SHT31;57119;52.516;13.508;2022-09-28T00:25:09;8.57;95.13
69823;SHT31;57119;52.516;13.508;2022-09-28T00:27:34;8.42;95.41
69823;SHT31;57119;52.516;13.508;2022-09-28T00:29:59;8.45;95.41
69823;SHT31;57119;52.516;13.508;2022-09-28T00:32:25;8.45;95.41
69823;SHT31;57119;52.516;13.508;2022-09-28T00:34:51;8.40;95.66
69823;SHT31;57119;52.516;13.508;2022-09-28T00:37:17;8.36;95.84
69823;SHT31;57119;52.516;13.508;2022-09-28T00:39:44;8.33;96.00
69823;SHT31;57119;52.516;13.508;2022-09-28T00:42:17;8.36;95.90
69823;SHT31;57119;52.516;13.508;2022-09-28T00:44:52;8.40;96.02
69823;SHT31;57119;52.516;13.508;2022-09-28T00:50:16;8.34;95.98
69823;SHT31;57119;52.516;13.508;2022-09-28T00:55:20;8.34;96.28
69823;SHT31;57119;52.516;13.508;2022-09-28T00:57:52;8.42;95.81
69823;SHT31;57119;52.516;13.508;2022-09-28T01:00:20;8.41;96.26
69823;SHT31;57119;52.516;13.508;2022-09-28T01:02:46;8.48;96.01
69823;SHT31;57119;52.516;13.508;2022-09-28T01:05:12;8.51;95.90
69823;SHT31;57119;52.516;13.508;2022-09-28T01:07:38;8.55;95.62
69823;SHT31;57119;52.516;13.508;2022-09-28T01:10:05;8.54;95.86
69823;SHT31;57119;52.516;13.508;2022-09-28T01:12:31;8.54;95.86
69823;SHT31;57119;52.516;13.508;2022-09-28T01:14:57;8.58;96.02
69823;SHT31;57119;52.516;13.508;2022-09-28T01:17:32;8.51;95.79
69823;SHT31;57119;52.516;13.508;2022-09-28T01:22:45;8.55;95.62
69823;SHT31;57119;52.516;13.508;2022-09-28T01:25:27;8.57;95.52
69823;SHT31;57119;52.516;13.508;2022-09-28T01:28:16;8.60;95.61
69823;SHT31;57119;52.516;13.508;2022-09-28T01:30:48;8.57;95.37
69823;SHT31;57119;52.516;13.508;2022-09-28T01:33:21;8.57;95.51
69823;SHT31;57119;52.516;13.508;2022-09-28T01:36:18;8.51;95.98
69823;SHT31;57119;52.516;13.508;2022-09-28T01:38:56;8.64;95.33
69823;SHT31;57119;52.516;13.508;2022-09-28T01:41:25;8.58;95.41
69823;SHT31;57119;52.516;13.508;2022-09-28T01:43:55;8.54;95.62
69823;SHT31;57119;52.516;13.508;2022-09-28T01:46:25;8.48;96.13
69823;SHT31;57119;52.516;13.508;2022-09-28T01:48:56;8.50;96.00
69823;SHT31;57119;52.516;13.508;2022-09-28T01:51:29;8.55;96.00
69823;SHT31;57119;52.516;13.508;2022-09-28T01:54:00;8.54;95.78
69823;SHT31;57119;52.516;13.508;2022-09-28T01:56:35;8.52;95.91
69823;SHT31;57119;52.516;13.508;2022-09-28T01:59:07;8.54;95.99
69823;SHT31;57119;52.516;13.508;2022-09-28T02:04:14;8.48;96.18
69823;SHT31;57119;52.516;13.508;2022-09-28T02:07:15;8.51;96.36
69823;SHT31;57119;52.516;13.508;2022-09-28T02:09:49;8.55;96.05
69823;SHT31;57119;52.516;13.508;2022-09-28T02:12:23;8.55;96.34
69823;SHT31;57119;52.516;13.508;2022-09-28T02:14:51;8.62;95.63
69823;SHT31;57119;52.516;13.508;2022-09-28T02:17:19;8.64;95.84
69823;SHT31;57119;52.516;13.508;2022-09-28T02:19:44;8.58;95.63
69823;SHT31;57119;52.516;13.508;2022-09-28T02:24:58;8.58;96.00
69823;SHT31;57119;52.516;13.508;2022-09-28T02:27:33;8.54;96.03
69823;SHT31;57119;52.516;13.508;2022-09-28T02:30:01;8.51;96.06
69823;SHT31;57119;52.516;13.508;2022-09-28T02:32:28;8.48;96.37
69823;SHT31;57119;52.516;13.508;2022-09-28T02:34:55;8.48;96.38
69823;SHT31;57119;52.516;13.508;2022-09-28T02:37:21;8.52;96.36
69823;SHT31;57119;52.516;13.508;2022-09-28T02:39:46;8.54;96.43
69823;SHT31;57119;52.516;13.508;2022-09-28T02:42:23;8.48;96.61
69823;SHT31;57119;52.516;13.508;2022-09-28T02:48:10;8.34;97.12
69823;SHT31;57119;52.516;13.508;2022-09-28T02:53:24;8.31;97.37
69823;SHT31;57119;52.516;13.508;2022-09-28T02:55:59;8.33;97.40
69823;SHT31;57119;52.516;13.508;2022-09-28T02:58:36;8.37;97.42
69823;SHT31;57119;52.516;13.508;2022-09-28T03:01:08;8.37;97.20
69823;SHT31;57119;52.516;13.508;2022-09-28T03:11:35;7.99;98.47
69823;SHT31;57119;52.516;13.508;2022-09-28T03:14:02;8.07;98.43
69823;SHT31;57119;52.516;13.508;2022-09-28T03:16:28;8.03;98.65
69823;SHT31;57119;52.516;13.508;2022-09-28T03:18:56;7.99;98.80
69823;SHT31;57119;52.516;13.508;2022-09-28T03:21:21;7.99;99.05
69823;SHT31;57119;52.516;13.508;2022-09-28T03:23:46;8.03;99.40
69823;SHT31;57119;52.516;13.508;2022-09-28T03:26:12;7.92;99.20
69823;SHT31;57119;52.516;13.508;2022-09-28T03:28:38;7.92;99.50
69823;SHT31;57119;52.516;13.508;2022-09-28T03:31:03;7.83;99.70
69823;SHT31;57119;52.516;13.508;2022-09-28T03:33:28;7.83;99.89
69823;SHT31;57119;52.516;13.508;2022-09-28T03:35:54;7.76;99.86
69823;SHT31;57119;52.516;13.508;2022-09-28T03:38:19;7.81;99.87
69823;SHT31;57119;52.516;13.508;2022-09-28T03:40:53;7.79;99.91
69823;SHT31;57119;52.516;13.508;2022-09-28T03:43:18;7.78;99.99
69823;SHT31;57119;52.516;13.508;2022-09-28T03:45:53;7.76;99.99
69823;SHT31;57119;52.516;13.508;2022-09-28T03:48:23;7.75;99.99
69823;SHT31;57119;52.516;13.508;2022-09-28T03:50:52;7.75;99.99
69823;SHT31;57119;52.516;13.508;2022-09-28T03:53:17;7.79;99.99
69823;SHT31;57119;52.516;13.508;2022-09-28T03:55:42;7.72;99.99
69823;SHT31;57119;52.516;13.508;2022-09-28T03:58:07;7.76;99.99
69823;SHT31;57119;52.516;13.508;2022-09-28T04:00:33;7.75;99.99
69823;SHT31;57119;52.516;13.508;2022-09-28T04:02:58;7.79;99.99
69823;SHT31;57119;52.516;13.508;2022-09-28T04:05:23;7.79;99.99
69823;SHT31;57119;52.516;13.508;2022-09-28T04:07:48;7.66;99.99
69823;SHT31;57119;52.516;13.508;2022-09-28T04:10:14;7.71;99.99
69823;SHT31;57119;52.516;13.508;2022-09-28T04:12:39;7.62;99.99
69823;SHT31;57119;52.516;13.508;2022-09-28T04:15:05;7.65;99.99
69823;SHT31;57119;52.516;13.508;2022-09-28T04:17:30;7.61;99.99
69823;SHT31;57119;52.516;13.508;2022-09-28T04:19:56;7.58;99.99
69823;SHT31;57119;52.516;13.508;2022-09-28T04:22:21;7.54;99.99
69823;SHT31;57119;52.516;13.508;2022-09-28T04:24:47;7.62;99.99
69823;SHT31;57119;52.516;13.508;2022-09-28T04:27:12;7.55;99.99
69823;SHT31;57119;52.516;13.508;2022-09-28T04:29:56;7.44;99.99
69823;SHT31;57119;52.516;13.508;2022-09-28T04:32:22;7.40;99.99
69823;SHT31;57119;52.516;13.508;2022-09-28T04:34:47;7.43;99.99
69823;SHT31;57119;52.516;13.508;2022-09-28T04:37:12;7.50;99.99
69823;SHT31;57119;52.516;13.508;2022-09-28T04:39:39;7.51;99.99
69823;SHT31;57119;52.516;13.508;2022-09-28T04:42:04;7.59;99.99
69823;SHT31;57119;52.516;13.508;2022-09-28T04:44:30;7.65;99.99
69823;SHT31;57119;52.516;13.508;2022-09-28T04:46:55;7.68;99.99
69823;SHT31;57119;52.516;13.508;2022-09-28T04:49:20;7.83;99.99
69823;SHT31;57119;52.516;13.508;2022-09-28T04:51:46;7.87;99.99
69823;SHT31;57119;52.516;13.508;2022-09-28T04:54:11;7.85;99.99
69823;SHT31;57119;52.516;13.508;2022-09-28T04:56:36;7.94;99.86
69823;SHT31;57119;52.516;13.508;2022-09-28T04:59:02;7.92;99.68
69823;SHT31;57119;52.516;13.508;2022-09-28T05:01:27;8.00;99.51
69823;SHT31;57119;52.516;13.508;2022-09-28T05:03:53;8.02;98.90
69823;SHT31;57119;52.516;13.508;2022-09-28T05:06:20;8.07;98.85
69823;SHT31;57119;52.516;13.508;2022-09-28T05:08:47;8.07;98.45
69823;SHT31;57119;52.516;13.508;2022-09-28T05:11:13;8.09;98.50
69823;SHT31;57119;52.516;13.508;2022-09-28T05:13:40;8.10;98.51
69823;SHT31;57119;52.516;13.508;2022-09-28T05:16:07;8.12;98.29
69823;SHT31;57119;52.516;13.508;2022-09-28T05:18:33;8.19;98.22
69823;SHT31;57119;52.516;13.508;2022-09-28T05:20:58;8.12;98.39
69823;SHT31;57119;52.516;13.508;2022-09-28T05:23:25;8.14;98.25
69823;SHT31;57119;52.516;13.508;2022-09-28T05:25:50;8.17;98.26
69823;SHT31;57119;52.516;13.508;2022-09-28T05:28:23;8.20;98.33
69823;SHT31;57119;52.516;13.508;2022-09-28T05:30:49;8.21;98.24
69823;SHT31;57119;52.516;13.508;2022-09-28T05:33:14;8.26;98.06
69823;SHT31;57119;52.516;13.508;2022-09-28T05:35:40;8.20;97.99
69823;SHT31;57119;52.516;13.508;2022-09-28T05:38:05;8.20;98.06
69823;SHT31;57119;52.516;13.508;2022-09-28T05:40:31;8.27;98.06
69823;SHT31;57119;52.516;13.508;2022-09-28T05:43:00;8.23;98.33
69823;SHT31;57119;52.516;13.508;2022-09-28T05:45:27;8.24;98.35
69823;SHT31;57119;52.516;13.508;2022-09-28T05:47:52;8.40;97.75
69823;SHT31;57119;52.516;13.508;2022-09-28T05:50:18;8.40;97.95
69823;SHT31;57119;52.516;13.508;2022-09-28T05:52:43;8.37;98.09
69823;SHT31;57119;52.516;13.508;2022-09-28T05:55:09;8.51;97.76
69823;SHT31;57119;52.516;13.508;2022-09-28T05:57:34;8.45;97.63
69823;SHT31;57119;52.516;13.508;2022-09-28T06:00:00;8.51;97.40
69823;SHT31;57119;52.516;13.508;2022-09-28T06:02:26;8.67;96.82
69823;SHT31;57119;52.516;13.508;2022-09-28T06:04:51;8.58;96.83
69823;SHT31;57119;52.516;13.508;2022-09-28T06:07:17;8.69;96.33
69823;SHT31;57119;52.516;13.508;2022-09-28T06:09:43;8.78;96.03
69823;SHT31;57119;52.516;13.508;2022-09-28T06:12:08;9.26;95.37
69823;SHT31;57119;52.516;13.508;2022-09-28T06:14:33;9.43;93.80
69823;SHT31;57119;52.516;13.508;2022-09-28T06:16:59;9.86;92.46
69823;SHT31;57119;52.516;13.508;2022-09-28T06:19:24;10.17;91.83
69823;SHT31;57119;52.516;13.508;2022-09-28T06:21:49;10.15;91.56
69823;SHT31;57119;52.516;13.508;2022-09-28T06:24:15;10.25;90.76
69823;SHT31;57119;52.516;13.508;2022-09-28T06:26:40;10.26;91.04
69823;SHT31;57119;52.516;13.508;2022-09-28T06:29:05;10.29;91.07
69823;SHT31;57119;52.516;13.508;2022-09-28T06:31:30;10.60;90.16
69823;SHT31;57119;52.516;13.508;2022-09-28T06:33:56;11.11;88.32
69823;SHT31;57119;52.516;13.508;2022-09-28T06:36:21;11.08;87.88
69823;SHT31;57119;52.516;13.508;2022-09-28T06:38:47;11.32;86.51
69823;SHT31;57119;52.516;13.508;2022-09-28T06:41:12;11.33;86.73
69823;SHT31;57119;52.516;13.508;2022-09-28T06:43:38;11.95;85.07
69823;SHT31;57119;52.516;13.508;2022-09-28T06:46:04;12.25;83.58
69823;SHT31;57119;52.516;13.508;2022-09-28T06:48:30;12.73;82.97
69823;SHT31;57119;52.516;13.508;2022-09-28T06:50:58;12.79;81.66
69823;SHT31;57119;52.516;13.508;2022-09-28T06:53:23;13.07;80.47
69823;SHT31;57119;52.516;13.508;2022-09-28T06:55:49;13.42;79.52
69823;SHT31;57119;52.516;13.508;2022-09-28T06:58:16;13.58;79.40
69823;SHT31;57119;52.516;13.508;2022-09-28T07:00:42;13.75;77.87
69823;SHT31;57119;52.516;13.508;2022-09-28T07:03:19;13.86;77.97
69823;SHT31;57119;52.516;13.508;2022-09-28T07:05:47;14.17;77.03
69823;SHT31;57119;52.516;13.508;2022-09-28T07:08:14;14.74;75.23
69823;SHT31;57119;52.516;13.508;2022-09-28T07:10:41;15.10;74.42
69823;SHT31;57119;52.516;13.508;2022-09-28T07:13:07;13.96;75.98
69823;SHT31;57119;52.516;13.508;2022-09-28T07:15:33;13.63;77.11
69823;SHT31;57119;52.516;13.508;2022-09-28T07:18:00;13.50;77.34
69823;SHT31;57119;52.516;13.508;2022-09-28T07:20:27;15.30;74.53
69823;SHT31;57119;52.516;13.508;2022-09-28T07:22:56;15.98;71.47
69823;SHT31;57119;52.516;13.508;2022-09-28T07:25:24;15.92;70.84
69823;SHT31;57119;52.516;13.508;2022-09-28T07:27:50;15.33;71.68
69823;SHT31;57119;52.516;13.508;2022-09-28T07:30:15;16.13;70.98
69823;SHT31;57119;52.516;13.508;2022-09-28T07:32:41;16.21;71.05
69823;SHT31;57119;52.516;13.508;2022-09-28T07:35:06;16.74;69.00
69823;SHT31;57119;52.516;13.508;2022-09-28T07:37:34;17.35;67.57
69823;SHT31;57119;52.516;13.508;2022-09-28T07:40:02;17.73;66.97
69823;SHT31;57119;52.516;13.508;2022-09-28T07:42:46;18.13;64.98
69823;SHT31;57119;52.516;13.508;2022-09-28T07:45:11;18.35;64.28
69823;SHT31;57119;52.516;13.508;2022-09-28T07:47:36;18.54;64.86
69823;SHT31;57119;52.516;13.508;2022-09-28T07:50:02;18.65;63.50
69823;SHT31;57119;52.516;13.508;2022-09-28T07:52:27;18.33;64.18
69823;SHT31;57119;52.516;13.508;2022-09-28T07:54:53;15.58;71.06
69823;SHT31;57119;52.516;13.508;2022-09-28T07:57:20;15.75;69.32
69823;SHT31;57119;52.516;13.508;2022-09-28T07:59:47;16.32;68.90
69823;SHT31;57119;52.516;13.508;2022-09-28T08:02:16;15.46;71.01
69823;SHT31;57119;52.516;13.508;2022-09-28T08:04:47;14.65;72.00
69823;SHT31;57119;52.516;13.508;2022-09-28T08:07:13;13.25;76.65
69823;SHT31;57119;52.516;13.508;2022-09-28T08:09:40;12.89;78.33
69823;SHT31;57119;52.516;13.508;2022-09-28T08:12:05;13.04;77.52
69823;SHT31;57119;52.516;13.508;2022-09-28T08:14:31;12.97;77.49
69823;SHT31;57119;52.516;13.508;2022-09-28T08:16:59;12.49;78.70
69823;SHT31;57119;52.516;13.508;2022-09-28T08:19:24;12.96;77.16
69823;SHT31;57119;52.516;13.508;2022-09-28T08:21:50;13.21;77.21
69823;SHT31;57119;52.516;13.508;2022-09-28T08:24:16;13.04;78.49
69823;SHT31;57119;52.516;13.508;2022-09-28T08:26:42;13.06;78.12
69823;SHT31;57119;52.516;13.508;2022-09-28T08:29:08;13.03;78.57
69823;SHT31;57119;52.516;13.508;2022-09-28T08:31:34;12.53;79.02
69823;SHT31;57119;52.516;13.508;2022-09-28T08:34:00;12.34;80.28
69823;SHT31;57119;52.516;13.508;2022-09-28T08:36:25;12.48;79.88
69823;SHT31;57119;52.516;13.508;2022-09-28T08:38:52;12.63;79.91
69823;SHT31;57119;52.516;13.508;2022-09-28T08:44:22;12.28;80.30
69823;SHT31;57119;52.516;13.508;2022-09-28T08:47:01;11.87;80.75
69823;SHT31;57119;52.516;13.508;2022-09-28T08:51:59;11.77;81.33
69823;SHT31;57119;52.516;13.508;2022-09-28T08:54:47;12.00;81.06
69823;SHT31;57119;52.516;13.508;2022-09-28T08:57:22;12.14;81.43
69823;SHT31;57119;52.516;13.508;2022-09-28T08:59:51;12.38;80.33
69823;SHT31;57119;52.516;13.508;2022-09-28T09:02:33;12.44;80.02
69823;SHT31;57119;52.516;13.508;2022-09-28T09:05:03;12.67;79.61
69823;SHT31;57119;52.516;13.508;2022-09-28T09:07:54;12.29;80.03
69823;SHT31;57119;52.516;13.508;2022-09-28T09:10:46;12.73;78.85
69823;SHT31;57119;52.516;13.508;2022-09-28T09:18:47;12.31;78.24
69823;SHT31;57119;52.516;13.508;2022-09-28T09:24:23;12.90;77.66
69823;SHT31;57119;52.516;13.508;2022-09-28T09:27:00;13.00;78.14
69823;SHT31;57119;52.516;13.508;2022-09-28T09:32:52;12.86;77.37
69823;SHT31;57119;52.516;13.508;2022-09-28T09:35:28;13.06;77.01
69823;SHT31;57119;52.516;13.508;2022-09-28T09:49:14;17.39;64.74
69823;SHT31;57119;52.516;13.508;2022-09-28T09:51:51;17.15;63.48
69823;SHT31;57119;52.516;13.508;2022-09-28T09:57:17;18.25;60.94
69823;SHT31;57119;52.516;13.508;2022-09-28T09:59:44;19.78;56.14
69823;SHT31;57119;52.516;13.508;2022-09-28T10:02:21;21.73;52.47
69823;SHT31;57119;52.516;13.508;2022-09-28T10:04:47;21.39;53.31
69823;SHT31;57119;52.516;13.508;2022-09-28T10:07:38;22.46;51.83
69823;SHT31;57119;52.516;13.508;2022-09-28T10:10:18;19.85;53.97
69823;SHT31;57119;52.516;13.508;2022-09-28T10:12:45;18.10;58.64
69823;SHT31;57119;52.516;13.508;2022-09-28T10:15:15;19.82;55.68
69823;SHT31;57119;52.516;13.508;2022-09-28T10:17:41;20.71;53.52
69823;SHT31;57119;52.516;13.508;2022-09-28T10:20:11;19.31;56.18
69823;SHT31;57119;52.516;13.508;2022-09-28T10:22:38;18.69;56.12
69823;SHT31;57119;52.516;13.508;2022-09-28T10:25:04;18.96;54.95
69823;SHT31;57119;52.516;13.508;2022-09-28T10:27:33;18.30;57.13
69823;SHT31;57119;52.516;13.508;2022-09-28T10:30:08;21.36;50.13
69823;SHT31;57119;52.516;13.508;2022-09-28T10:32:39;22.08;49.61
69823;SHT31;57119;52.516;13.508;2022-09-28T10:37:55;19.27;52.47
69823;SHT31;57119;52.516;13.508;2022-09-28T10:40:47;21.79;49.22
69823;SHT31;57119;52.516;13.508;2022-09-28T10:43:28;22.65;47.99
69823;SHT31;57119;52.516;13.508;2022-09-28T10:46:13;22.70;46.82
69823;SHT31;57119;52.516;13.508;2022-09-28T10:54:17;21.46;50.57
69823;SHT31;57119;52.516;13.508;2022-09-28T10:56:43;19.83;53.19
69823;SHT31;57119;52.516;13.508;2022-09-28T10:59:23;21.60;49.70
69823;SHT31;57119;52.516;13.508;2022-09-28T11:01:57;22.86;47.54
69823;SHT31;57119;52.516;13.508;2022-09-28T11:04:27;22.22;47.80
69823;SHT31;57119;52.516;13.508;2022-09-28T11:06:53;20.53;51.47
69823;SHT31;57119;52.516;13.508;2022-09-28T11:11:51;21.41;52.49
69823;SHT31;57119;52.516;13.508;2022-09-28T11:14:33;20.71;52.19
69823;SHT31;57119;52.516;13.508;2022-09-28T11:17:25;20.51;52.37
69823;SHT31;57119;52.516;13.508;2022-09-28T11:19:53;19.46;55.32
69823;SHT31;57119;52.516;13.508;2022-09-28T11:22:19;18.83;55.04
69823;SHT31;57119;52.516;13.508;2022-09-28T11:24:46;19.79;54.31
69823;SHT31;57119;52.516;13.508;2022-09-28T11:27:23;18.34;57.62
69823;SHT31;57119;52.516;13.508;2022-09-28T11:29:59;18.77;57.82
69823;SHT31;57119;52.516;13.508;2022-09-28T11:32:29;18.93;56.85
69823;SHT31;57119;52.516;13.508;2022-09-28T11:34:58;19.81;57.02
69823;SHT31;57119;52.516;13.508;2022-09-28T11:37:40;18.28;58.83
69823;SHT31;57119;52.516;13.508;2022-09-28T11:40:40;17.12;61.35
69823;SHT31;57119;52.516;13.508;2022-09-28T11:46:01;15.61;64.14
69823;SHT31;57119;52.516;13.508;2022-09-28T11:48:42;16.12;63.67
69823;SHT31;57119;52.516;13.508;2022-09-28T11:51:22;17.18;61.26
69823;SHT31;57119;52.516;13.508;2022-09-28T11:53:54;17.77;59.75
69823;SHT31;57119;52.516;13.508;2022-09-28T11:56:32;18.91;56.88
69823;SHT31;57119;52.516;13.508;2022-09-28T11:59:20;16.95;60.43
69823;SHT31;57119;52.516;13.508;2022-09-28T12:02:02;17.34;59.67
69823;SHT31;57119;52.516;13.508;2022-09-28T12:04:45;16.29;62.85
69823;SHT31;57119;52.516;13.508;2022-09-28T12:07:18;15.95;62.34
69823;SHT31;57119;52.516;13.508;2022-09-28T12:10:06;16.42;62.20
69823;SHT31;57119;52.516;13.508;2022-09-28T12:17:56;16.32;63.21
69823;SHT31;57119;52.516;13.508;2022-09-28T12:20:28;16.84;61.44
69823;SHT31;57119;52.516;13.508;2022-09-28T12:23:02;16.39;62.11
69823;SHT31;57119;52.516;13.508;2022-09-28T12:25:36;15.92;63.84
69823;SHT31;57119;52.516;13.508;2022-09-28T12:28:17;15.50;64.72
69823;SHT31;57119;52.516;13.508;2022-09-28T12:30:46;14.88;66.65
69823;SHT31;57119;52.516;13.508;2022-09-28T12:33:13;14.61;67.65
69823;SHT31;57119;52.516;13.508;2022-09-28T13:01:01;13.72;67.77
69823;SHT31;57119;52.516;13.508;2022-09-28T13:09:13;13.13;68.89
69823;SHT31;57119;52.516;13.508;2022-09-28T13:14:37;13.14;70.87
69823;SHT31;57119;52.516;13.508;2022-09-28T13:20:16;12.80;70.48
69823;SHT31;57119;52.516;13.508;2022-09-28T13:22:52;12.85;70.52
69823;SHT31;57119;52.516;13.508;2022-09-28T13:25:21;12.94;69.49
69823;SHT31;57119;52.516;13.508;2022-09-28T13:27:55;12.63;70.19
69823;SHT31;57119;52.516;13.508;2022-09-28T13:30:23;12.97;69.66
69823;SHT31;57119;52.516;13.508;2022-09-28T13:32:50;13.24;69.46
69823;SHT31;57119;52.516;13.508;2022-09-28T13:35:16;13.45;69.21
69823;SHT31;57119;52.516;13.508;2022-09-28T13:37:45;13.31;69.87
69823;SHT31;57119;52.516;13.508;2022-09-28T13:40:12;13.42;69.76
69823;SHT31;57119;52.516;13.508;2022-09-28T13:59:25;12.66;70.58
69823;SHT31;57119;52.516;13.508;2022-09-28T14:02:32;13.10;70.50
69823;SHT31;57119;52.516;13.508;2022-09-28T14:05:03;14.09;69.27
69823;SHT31;57119;52.516;13.508;2022-09-28T14:10:20;14.21;67.12
69823;SHT31;57119;52.516;13.508;2022-09-28T14:12:52;13.81;67.79
69823;SHT31;57119;52.516;13.508;2022-09-28T14:20:48;14.03;68.03
69823;SHT31;57119;52.516;13.508;2022-09-28T14:23:30;14.08;67.83
69823;SHT31;57119;52.516;13.508;2022-09-28T14:29:10;13.99;68.32
69823;SHT31;57119;52.516;13.508;2022-09-28T14:31:40;13.76;68.19
69823;SHT31;57119;52.516;13.508;2022-09-28T14:34:22;13.61;68.85
69823;SHT31;57119;52.516;13.508;2022-09-28T14:36:48;14.12;67.70
69823;SHT31;57119;52.516;13.508;2022-09-28T14:39:34;14.45;65.11
69823;SHT31;57119;52.516;13.508;2022-09-28T14:42:24;14.24;65.62
69823;SHT31;57119;52.516;13.508;2022-09-28T14:47:41;14.78;65.46
69823;SHT31;57119;52.516;13.508;2022-09-28T14:52:47;14.17;65.79
69823;SHT31;57119;52.516;13.508;2022-09-28T14:55:16;14.40;65.29
69823;SHT31;57119;52.516;13.508;2022-09-28T14:57:43;14.05;66.69
69823;SHT31;57119;52.516;13.508;2022-09-28T15:00:19;14.13;66.58
69823;SHT31;57119;52.516;13.508;2022-09-28T15:02:48;14.75;65.47
69823;SHT31;57119;52.516;13.508;2022-09-28T15:05:26;15.22;64.83
69823;SHT31;57119;52.516;13.508;2022-09-28T15:07:53;14.69;63.87
69823;SHT31;57119;52.516;13.508;2022-09-28T15:10:36;14.74;65.10
69823;SHT31;57119;52.516;13.508;2022-09-28T15:13:05;14.58;66.18
69823;SHT31;57119;52.516;13.508;2022-09-28T15:15:40;14.08;68.15
69823;SHT31;57119;52.516;13.508;2022-09-28T15:18:29;14.03;68.54
69823;SHT31;57119;52.516;13.508;2022-09-28T15:20:57;13.71;70.00
69823;SHT31;57119;52.516;13.508;2022-09-28T15:23:32;13.38;71.25
69823;SHT31;57119;52.516;13.508;2022-09-28T15:25:59;13.58;70.97
69823;SHT31;57119;52.516;13.508;2022-09-28T15:28:24;13.57;71.66
69823;SHT31;57119;52.516;13.508;2022-09-28T15:30:50;13.37;72.40
69823;SHT31;57119;52.516;13.508;2022-09-28T15:33:26;12.94;74.21
69823;SHT31;57119;52.516;13.508;2022-09-28T15:36:24;12.89;74.75
69823;SHT31;57119;52.516;13.508;2022-09-28T15:41:24;12.72;76.15
69823;SHT31;57119;52.516;13.508;2022-09-28T15:44:04;12.42;76.64
69823;SHT31;57119;52.516;13.508;2022-09-28T15:46:31;12.28;78.25
69823;SHT31;57119;52.516;13.508;2022-09-28T15:48:59;12.22;78.46
69823;SHT31;57119;52.516;13.508;2022-09-28T15:51:26;12.16;78.93
69823;SHT31;57119;52.516;13.508;2022-09-28T15:54:10;12.04;79.20
69823;SHT31;57119;52.516;13.508;2022-09-28T15:57:09;11.83;79.14
69823;SHT31;57119;52.516;13.508;2022-09-28T15:59:53;11.56;80.23
69823;SHT31;57119;52.516;13.508;2022-09-28T16:02:20;11.44;80.80
69823;SHT31;57119;52.516;13.508;2022-09-28T16:04:48;11.56;80.79
69823;SHT31;57119;52.516;13.508;2022-09-28T16:12:23;11.19;83.29
69823;SHT31;57119;52.516;13.508;2022-09-28T16:14:57;11.10;85.86
69823;SHT31;57119;52.516;13.508;2022-09-28T16:17:28;10.98;86.60
69823;SHT31;57119;52.516;13.508;2022-09-28T16:19:57;11.05;86.21
69823;SHT31;57119;52.516;13.508;2022-09-28T16:22:22;11.08;86.68
69823;SHT31;57119;52.516;13.508;2022-09-28T16:24:56;10.95;87.76
69823;SHT31;57119;52.516;13.508;2022-09-28T16:27:25;10.80;88.64
69823;SHT31;57119;52.516;13.508;2022-09-28T16:30:20;10.50;89.48
69823;SHT31;57119;52.516;13.508;2022-09-28T16:32:51;10.39;89.61
69823;SHT31;57119;52.516;13.508;2022-09-28T16:35:22;10.28;91.19
69823;SHT31;57119;52.516;13.508;2022-09-28T16:38:08;10.16;93.82
69823;SHT31;57119;52.516;13.508;2022-09-28T16:40:37;10.10;94.71
69823;SHT31;57119;52.516;13.508;2022-09-28T16:43:05;10.13;95.49
69823;SHT31;57119;52.516;13.508;2022-09-28T16:45:32;10.06;95.46
69823;SHT31;57119;52.516;13.508;2022-09-28T16:48:00;10.09;96.44
69823;SHT31;57119;52.516;13.508;2022-09-28T16:50:26;10.13;94.40
69823;SHT31;57119;52.516;13.508;2022-09-28T16:53:11;10.20;96.06
69823;SHT31;57119;52.516;13.508;2022-09-28T16:55:56;10.23;96.47
69823;SHT31;57119;52.516;13.508;2022-09-28T16:58:22;10.30;93.78
69823;SHT31;57119;52.516;13.508;2022-09-28T17:00:49;10.37;95.09
69823;SHT31;57119;52.516;13.508;2022-09-28T17:03:16;10.46;93.05
69823;SHT31;57119;52.516;13.508;2022-09-28T17:05:45;10.44;94.12
69823;SHT31;57119;52.516;13.508;2022-09-28T17:08:13;10.43;93.42
69823;SHT31;57119;52.516;13.508;2022-09-28T17:10:55;10.46;93.20
69823;SHT31;57119;52.516;13.508;2022-09-28T17:13:23;10.35;93.15
69823;SHT31;57119;52.516;13.508;2022-09-28T17:16:04;10.29;91.39
69823;SHT31;57119;52.516;13.508;2022-09-28T17:18:32;10.25;92.21
69823;SHT31;57119;52.516;13.508;2022-09-28T17:21:02;10.19;92.22
69823;SHT31;57119;52.516;13.508;2022-09-28T17:23:28;10.12;92.61
69823;SHT31;57119;52.516;13.508;2022-09-28T17:25:54;10.06;91.35
69823;SHT31;57119;52.516;13.508;2022-09-28T17:28:22;10.03;92.07
69823;SHT31;57119;52.516;13.508;2022-09-28T17:30:48;9.98;91.79
69823;SHT31;57119;52.516;13.508;2022-09-28T17:33:14;9.92;92.52
69823;SHT31;57119;52.516;13.508;2022-09-28T17:35:40;9.92;92.74
69823;SHT31;57119;52.516;13.508;2022-09-28T17:38:06;9.88;92.30
69823;SHT31;57119;52.516;13.508;2022-09-28T17:40:31;9.85;92.92
69823;SHT31;57119;52.516;13.508;2022-09-28T17:42:57;9.84;93.01
69823;SHT31;57119;52.516;13.508;2022-09-28T17:45:24;9.79;93.02
69823;SHT31;57119;52.516;13.508;2022-09-28T17:47:54;9.75;93.31
69823;SHT31;57119;52.516;13.508;2022-09-28T17:50:25;9.77;93.35
69823;SHT31;57119;52.516;13.508;2022-09-28T17:52:52;9.70;93.91
69823;SHT31;57119;52.516;13.508;2022-09-28T17:55:23;9.67;94.91
69823;SHT31;57119;52.516;13.508;2022-09-28T17:57:49;9.67;94.04
69823;SHT31;57119;52.516;13.508;2022-09-28T18:00:15;9.70;93.78
69823;SHT31;57119;52.516;13.508;2022-09-28T18:02:42;9.70;93.84
69823;SHT31;57119;52.516;13.508;2022-09-28T18:05:09;9.74;95.10
69823;SHT31;57119;52.516;13.508;2022-09-28T18:07:36;9.73;93.21
69823;SHT31;57119;52.516;13.508;2022-09-28T18:10:04;9.78;95.38
69823;SHT31;57119;52.516;13.508;2022-09-28T18:12:29;9.74;95.96
69823;SHT31;57119;52.516;13.508;2022-09-28T18:14:55;9.67;96.10
69823;SHT31;57119;52.516;13.508;2022-09-28T18:17:20;9.57;95.89